Saturday, December 20, 2014
13:40 UTC
  |  Log In   |  Register Free
Airport Search:

Greater Portsmouth Regional Airport
(KPMH)

Greater Portsmouth Regional Airport Diagram
No Airport Diagram Available

FAA data valid effective November 13, 2014 - January 08, 2015 (unless otherwise noted).

 
 
 
 
 
 
 
 
 
 
 
 
 
 

Current Aviation Weather for Greater Portsmouth Regional Airport (KPMH)

METAR data is unavailable for PMH. The nearest METAR location is at KDWU (17.9 nm SE from PMH).

The most recent METAR observation for KDWU was updated at: 2115
METAR Summary (Translated METAR)
KDWU
182055Z AUTO 00000KT 10SM OVC100 M01/M07 A3021 RMK AO1 57007
(17.9 nm SE from KPMH)
KHTS
182051Z 34003KT 10SM SCT024 OVC100 M01/M06 A3019 RMK AO2 SLP232 T10061056 58003
(31.5 nm SE from KPMH)
TAF Summary (Translated TAF)
KHTS
201132Z 2012/2112 00000KT P6SM BKN080 FM210300 00000KT P6SM BKN030
  Airport Weather Conditions for KPMH

Current weather conditions are
not available for PMH


The nearest NOAA weather station
is at DWU, (17.9 nm SE from PMH)
  
 Current Weather at DWU
30° F
Overcast
Northeast winds at 3.5 mph
DWU NOAA Radar

Pressure: 30.27 in
Humidity: 69%
Wind: Northeast at 3.5 MPH (3 KT)
Dew Point: 21.2°F
Visibility: 10.00 mi


Airport Weather Forecast for KPMH

Translated METAR and TAF for KHTS
Translated METAR for KHTS (1341 UTC 20 December 2014)
found at http://aviationweather.gov/adds/metars/
 
METAR text: KHTS 201251Z 00000KT 9SM SCT060 SCT080 OVC100 M02/M04 A3027 RMK AO2 SLP256 T10171044
Conditions at: KHTS (HUNTINGTON , WV, US) observed 1251 UTC 20 December 2014
Temperature: -1.7°C (29°F)
Dewpoint: -4.4°C (24°F) [RH = 82%]
Pressure (altimeter): 30.27 inches Hg (1025.1 mb)
[Sea-level pressure: 1025.6 mb]
Winds: calm
Visibility: 9 miles (14 km)
Ceiling: 10000 feet AGL
Clouds: scattered clouds at 6000 feet AGL
scattered clouds at 8000 feet AGL
overcast cloud deck at 10000 feet AGL
Weather: no significant weather observed at this time
Translated TAF for KHTS
Forecast for: KHTS (HUNTINGTON , WV, US)
TAF Text: KHTS 201132Z 2012/2112 00000KT P6SM BKN080
Forecast period: 1200 UTC 20 December 2014 to 0300 UTC 21 December 2014
Forecast type: FROM: standard forecast or significant change
Winds: calm
Visibility: 6 or more miles (10+ km)
Ceiling: 8000 feet AGL
Clouds: broken clouds at 8000 feet AGL
Weather: no significant weather forecast for this period
TAF Text: FM210300 00000KT P6SM BKN030
Forecast period: 0300 to 1200 UTC 21 December 2014
Forecast type: FROM: standard forecast or significant change
Winds: calm
Visibility: 6 or more miles (10+ km)
Ceiling: 3000 feet AGL
Clouds: broken clouds at 3000 feet AGL
Weather: no significant weather forecast for this period

Find All Airport Services Find A Hotel Find A Rental Car Find A Golf Course Find A Restaurant $100 Hamburger



FBO's on the Field
FBO Company Facility Photos Services Transportation Aviation Fuel Prices: Prices include tax
Catering Weather Repair Courtesy Rental Type 100LL JetA JetA+ MOGAS 8087
 
Chasteen Aviation, Inc.

This FBO has not yet been rated
FS:Phillips 66
Last Updated: Nov-24
Login to update fuel prices
SS:
Contact Chasteen Aviation, Inc.More FBO Information
 
Add another FBO Facility Photos Catering Weather Repair Courtesy Rental Type 100LL JetA JetA+ MOGAS 8087
Services Transportation Aviation Fuel Prices: Prices include tax


model-print
model-print
model-print
model-print